Island Explorer 3 — WDD5656 — position and weather

sailwx.info

Track history (hours):
 
Tides and Currents Weather Stations Pressure Air Temp Water Temp Dewpoint Dewpoint Depression Visibility Wind Speed Wind Dir Waves Ship Positions

Island Explorer 3

Owner: Island Adventures, Inc., Anacortes, WA. More information available from US FCC via Universal Licensing System and Coast Guard Vessel Documentation Center.

Last reported at 2017-Oct-22 21:52 UTC. Time now 2017-Oct-23 08:21 UTC.
Position N 48°07' W 123°26'.

Type: Passenger vessel. MMSI: 367161570.

Date/timePositionNaut miles runAvg speedWind from/ knotsBaromVisibWave heightAir tempDewpointWater temp
2017-Oct-22 21:52N 48°07' W 123°26'4 9.6
2017-Oct-22 21:29N 48°11' W 123°25'612.1
2017-Oct-22 20:59N 48°15' W 123°31'2 4.6
2017-Oct-22 20:29N 48°17' W 123°33'1 1.9
2017-Oct-22 20:00N 48°18' W 123°32'2 3.6
2017-Oct-22 19:30N 48°17' W 123°34'1 2.2
2017-Oct-22 18:59N 48°16' W 123°35'3 6.2
2017-Oct-22 18:28N 48°15' W 123°30'614.2
2017-Oct-22 18:00N 48°09' W 123°26'2 2.9
2017-Oct-22 17:14N 48°07' W 123°26'0 0.0
2017-Oct-22 16:58N 48°07' W 123°26'0 0.0
2017-Oct-22 16:17N 48°07' W 123°26'0 0.0
2017-Oct-22 16:00N 48°07' W 123°26'0 0.0
2017-Oct-22 15:25N 48°07' W 123°26'  
2017-Oct-15 22:48N 48°07' W 123°26'1 3.6
2017-Oct-15 22:31N 48°08' W 123°25'713.8
2017-Oct-15 22:00N 48°11' W 123°33'1813.0
2017-Oct-15 20:40N 48°18' W 123°58'3 6.3
2017-Oct-15 20:14N 48°19' W 124°01'0 1.8
2017-Oct-15 19:57N 48°20' W 124°01'9 8.2
2017-Oct-15 18:53N 48°16' W 123°48'615.2
2017-Oct-15 18:30N 48°14' W 123°41'815.6
2017-Oct-15 18:00N 48°11' W 123°30'4 2.4
2017-Oct-15 16:11N 48°07' W 123°26'0 0.0
2017-Oct-14 22:36N 48°07' W 123°26'0 0.1
2017-Oct-14 22:30N 48°07' W 123°26'4 7.8
2017-Oct-14 22:00N 48°10' W 123°29'815.3
2017-Oct-14 21:27N 48°17' W 123°36'5 9.7
2017-Oct-14 20:57N 48°20' W 123°43'1 1.7
2017-Oct-14 20:29N 48°20' W 123°42'610.6
2017-Oct-14 19:54N 48°17' W 123°34'3 5.1
2017-Oct-14 19:22N 48°18' W 123°37'2 4.9
2017-Oct-14 19:00N 48°18' W 123°40'2 3.4
2017-Oct-14 18:30N 48°16' W 123°39'713.7
2017-Oct-14 18:00N 48°13' W 123°30'612.6
2017-Oct-14 17:30N 48°08' W 123°25'0 0.5
2017-Oct-14 16:30N 48°07' W 123°26'0 0.0
2017-Oct-13 21:42N 48°07' W 123°26'2 7.7
2017-Oct-13 21:30N 48°08' W 123°24'814.2
2017-Oct-13 20:57N 48°16' W 123°24'3 6.8
2017-Oct-13 20:30N 48°19' W 123°25'3 6.1
2017-Oct-13 19:59N 48°19' W 123°30'1 2.9
2017-Oct-13 19:30N 48°18' W 123°32'1 1.9
2017-Oct-13 19:00N 48°17' W 123°32'3 5.7
2017-Oct-13 18:30N 48°14' W 123°32'612.0
2017-Oct-13 18:00N 48°11' W 123°25'4 7.1
2017-Oct-13 17:30N 48°07' W 123°26'0 0.0
2017-Oct-13 16:59N 48°07' W 123°26'0 0.0
2017-Oct-13 16:29N 48°07' W 123°26'  
Track history (hours):
 
Tides and Currents Weather Stations Pressure Air Temp Water Temp Dewpoint Dewpoint Depression Visibility Wind Speed Wind Dir Waves Ship Positions

Island Explorer 3

Owner: Island Adventures, Inc., Anacortes, WA. More information available from US FCC via Universal Licensing System and Coast Guard Vessel Documentation Center.

Last reported at 2017-Oct-22 21:52 UTC. Time now 2017-Oct-23 08:21 UTC.
Position N 48°07' W 123°26'.

Type: Passenger vessel. MMSI: 367161570.

Date/timePositionNaut miles runAvg speedWind from/ knotsBaromVisibWave heightAir tempDewpointWater temp
2017-Oct-22 21:52N 48°07' W 123°26'4 9.6
2017-Oct-22 21:29N 48°11' W 123°25'612.1
2017-Oct-22 20:59N 48°15' W 123°31'2 4.6
2017-Oct-22 20:29N 48°17' W 123°33'1 1.9
2017-Oct-22 20:00N 48°18' W 123°32'2 3.6
2017-Oct-22 19:30N 48°17' W 123°34'1 2.2
2017-Oct-22 18:59N 48°16' W 123°35'3 6.2
2017-Oct-22 18:28N 48°15' W 123°30'614.2
2017-Oct-22 18:00N 48°09' W 123°26'2 2.9
2017-Oct-22 17:14N 48°07' W 123°26'0 0.0
2017-Oct-22 16:58N 48°07' W 123°26'0 0.0
2017-Oct-22 16:17N 48°07' W 123°26'0 0.0
2017-Oct-22 16:00N 48°07' W 123°26'0 0.0
2017-Oct-22 15:25N 48°07' W 123°26'  
2017-Oct-15 22:48N 48°07' W 123°26'1 3.6
2017-Oct-15 22:31N 48°08' W 123°25'713.8
2017-Oct-15 22:00N 48°11' W 123°33'1813.0
2017-Oct-15 20:40N 48°18' W 123°58'3 6.3
2017-Oct-15 20:14N 48°19' W 124°01'0 1.8
2017-Oct-15 19:57N 48°20' W 124°01'9 8.2
2017-Oct-15 18:53N 48°16' W 123°48'615.2
2017-Oct-15 18:30N 48°14' W 123°41'815.6
2017-Oct-15 18:00N 48°11' W 123°30'4 2.4
2017-Oct-15 16:11N 48°07' W 123°26'0 0.0
2017-Oct-14 22:36N 48°07' W 123°26'0 0.1
2017-Oct-14 22:30N 48°07' W 123°26'4 7.8
2017-Oct-14 22:00N 48°10' W 123°29'815.3
2017-Oct-14 21:27N 48°17' W 123°36'5 9.7
2017-Oct-14 20:57N 48°20' W 123°43'1 1.7
2017-Oct-14 20:29N 48°20' W 123°42'610.6
2017-Oct-14 19:54N 48°17' W 123°34'3 5.1
2017-Oct-14 19:22N 48°18' W 123°37'2 4.9
2017-Oct-14 19:00N 48°18' W 123°40'2 3.4
2017-Oct-14 18:30N 48°16' W 123°39'713.7
2017-Oct-14 18:00N 48°13' W 123°30'612.6
2017-Oct-14 17:30N 48°08' W 123°25'0 0.5
2017-Oct-14 16:30N 48°07' W 123°26'0 0.0
2017-Oct-13 21:42N 48°07' W 123°26'2 7.7
2017-Oct-13 21:30N 48°08' W 123°24'814.2
2017-Oct-13 20:57N 48°16' W 123°24'3 6.8
2017-Oct-13 20:30N 48°19' W 123°25'3 6.1
2017-Oct-13 19:59N 48°19' W 123°30'1 2.9
2017-Oct-13 19:30N 48°18' W 123°32'1 1.9
2017-Oct-13 19:00N 48°17' W 123°32'3 5.7
2017-Oct-13 18:30N 48°14' W 123°32'612.0
2017-Oct-13 18:00N 48°11' W 123°25'4 7.1
2017-Oct-13 17:30N 48°07' W 123°26'0 0.0
2017-Oct-13 16:59N 48°07' W 123°26'0 0.0
2017-Oct-13 16:29N 48°07' W 123°26'  

Dump ship's entire track history